createdAt,value
2018-03-22T00:00:04.926Z,18.04
2018-03-22T00:00:17.135Z,18.04
2018-03-22T00:00:29.322Z,18.04
2018-03-22T00:00:41.496Z,18.04
2018-03-22T00:00:53.668Z,18.04
2018-03-22T00:01:05.851Z,18.04
2018-03-22T00:01:18.044Z,18.04
2018-03-22T00:01:30.287Z,14.1
2018-03-22T00:01:42.472Z,14.1
2018-03-22T00:01:54.657Z,14.1
2018-03-22T00:02:06.827Z,14.1
2018-03-22T00:02:19.018Z,14.1
2018-03-22T00:02:31.194Z,14.1
2018-03-22T00:02:43.357Z,14.1
2018-03-22T00:02:55.569Z,14.1
2018-03-22T00:03:07.778Z,14.1
2018-03-22T00:03:20.035Z,14.1
2018-03-22T00:03:32.218Z,14.1
2018-03-22T00:03:44.395Z,14.1
2018-03-22T00:03:56.577Z,14.1
2018-03-22T00:04:08.771Z,14.1
2018-03-22T00:04:21.009Z,14.1
2018-03-22T00:04:33.181Z,13.94
2018-03-22T00:04:45.409Z,13.94
2018-03-22T00:04:57.582Z,13.94
2018-03-22T00:05:09.781Z,13.94
2018-03-22T00:05:21.969Z,13.94
2018-03-22T00:05:34.169Z,13.94
2018-03-22T00:05:46.345Z,13.94
2018-03-22T00:05:58.513Z,13.94
2018-03-22T00:06:10.732Z,13.94
2018-03-22T00:06:23.135Z,13.94
2018-03-22T00:06:35.344Z,13.94
2018-03-22T00:06:47.506Z,13.94
2018-03-22T00:06:59.698Z,13.94
2018-03-22T00:07:11.900Z,13.94
2018-03-22T00:07:24.218Z,13.94
2018-03-22T00:07:36.418Z,15.79
2018-03-22T00:07:48.635Z,15.79
2018-03-22T00:08:00.813Z,15.79
2018-03-22T00:08:12.993Z,15.79
2018-03-22T00:08:25.175Z,15.79
2018-03-22T00:08:37.412Z,15.79
2018-03-22T00:08:49.610Z,15.79
2018-03-22T00:09:01.789Z,15.79
2018-03-22T00:09:14.025Z,15.79
2018-03-22T00:09:26.215Z,15.79
2018-03-22T00:09:38.398Z,15.79
2018-03-22T00:09:50.566Z,15.79
2018-03-22T00:10:02.748Z,15.79
2018-03-22T00:10:14.924Z,15.79
2018-03-22T00:10:27.103Z,15.79
2018-03-22T00:10:39.281Z,20.55
2018-03-22T00:10:51.447Z,20.55
2018-03-22T00:11:03.633Z,20.55
2018-03-22T00:11:15.986Z,20.55
2018-03-22T00:11:28.183Z,20.55
2018-03-22T00:11:40.357Z,20.55
2018-03-22T00:11:52.662Z,20.55
2018-03-22T00:12:04.851Z,20.55
2018-03-22T00:12:17.045Z,20.55
2018-03-22T00:12:29.224Z,20.55
2018-03-22T00:12:41.447Z,20.55
2018-03-22T00:12:53.859Z,20.55
2018-03-22T00:13:06.025Z,20.55
2018-03-22T00:13:18.241Z,20.55
2018-03-22T00:13:30.405Z,21.14
2018-03-22T00:13:42.586Z,21.14
2018-03-22T00:13:54.758Z,21.14
2018-03-22T00:14:06.947Z,21.14
2018-03-22T00:14:19.109Z,21.14
2018-03-22T00:14:31.274Z,21.14
2018-03-22T00:14:43.443Z,21.14
2018-03-22T00:14:55.638Z,21.14
2018-03-22T00:15:07.804Z,21.14
2018-03-22T00:15:20.036Z,21.14
2018-03-22T00:15:32.217Z,21.14
2018-03-22T00:15:44.387Z,21.14
2018-03-22T00:15:56.576Z,21.14
2018-03-22T00:16:08.749Z,21.14
2018-03-22T00:16:20.993Z,21.14
2018-03-22T00:16:33.493Z,19.32
2018-03-22T00:16:45.841Z,19.32
2018-03-22T00:16:58.012Z,19.32
2018-03-22T00:17:10.191Z,19.32
2018-03-22T00:17:22.374Z,19.32
2018-03-22T00:17:34.628Z,19.32
2018-03-22T00:17:46.874Z,19.32
2018-03-22T00:17:59.033Z,19.32
2018-03-22T00:18:11.226Z,19.32
2018-03-22T00:18:23.428Z,19.32
2018-03-22T00:18:35.740Z,19.32
2018-03-22T00:18:47.937Z,19.32
2018-03-22T00:19:00.130Z,19.32
2018-03-22T00:19:12.329Z,19.32
2018-03-22T00:19:24.557Z,19.32
2018-03-22T00:19:36.742Z,21.79
2018-03-22T00:19:48.942Z,21.79
2018-03-22T00:20:01.117Z,21.79
2018-03-22T00:20:13.331Z,21.79
2018-03-22T00:20:25.536Z,21.79
2018-03-22T00:20:37.711Z,21.79
2018-03-22T00:20:49.889Z,21.79
2018-03-22T00:21:02.070Z,21.79
2018-03-22T00:21:14.296Z,21.79
2018-03-22T00:21:26.588Z,21.79
2018-03-22T00:21:38.781Z,21.79
2018-03-22T00:21:50.977Z,21.79
2018-03-22T00:22:03.163Z,21.79
2018-03-22T00:22:15.333Z,21.79
2018-03-22T00:22:27.504Z,21.79
2018-03-22T00:22:39.761Z,21.79
2018-03-22T00:22:51.955Z,20.9
2018-03-22T00:23:04.138Z,20.9
2018-03-22T00:23:16.313Z,20.9
2018-03-22T00:23:28.508Z,20.9
2018-03-22T00:23:40.693Z,20.9
2018-03-22T00:23:52.870Z,20.9
2018-03-22T00:24:05.069Z,20.9
2018-03-22T00:24:17.569Z,20.9
2018-03-22T00:24:29.754Z,20.9
2018-03-22T00:24:41.936Z,20.9
2018-03-22T00:24:54.105Z,20.9
2018-03-22T00:25:06.344Z,20.9
2018-03-22T00:25:18.512Z,20.9
2018-03-22T00:25:30.686Z,20.9
2018-03-22T00:25:42.871Z,20.9
2018-03-22T00:25:55.039Z,18.13
2018-03-22T00:26:07.203Z,18.13
2018-03-22T00:26:19.399Z,18.13
2018-03-22T00:26:31.580Z,18.13
2018-03-22T00:26:44.062Z,18.13
2018-03-22T00:26:56.481Z,18.13
2018-03-22T00:27:08.665Z,18.13
2018-03-22T00:27:20.847Z,18.13
2018-03-22T00:27:33.016Z,18.13
2018-03-22T00:27:45.192Z,18.13
2018-03-22T00:27:57.380Z,18.13
2018-03-22T00:28:09.541Z,18.13
2018-03-22T00:28:21.733Z,18.13
2018-03-22T00:28:33.914Z,18.13
2018-03-22T00:28:46.095Z,17.11
2018-03-22T00:28:58.262Z,17.11
2018-03-22T00:29:10.446Z,17.11
2018-03-22T00:29:22.636Z,17.11
2018-03-22T00:29:34.806Z,17.11
2018-03-22T00:29:47.016Z,17.11
2018-03-22T00:29:59.391Z,17.11
2018-03-22T00:30:11.578Z,17.11
2018-03-22T00:30:23.798Z,17.11
2018-03-22T00:30:35.994Z,17.11
2018-03-22T00:30:48.165Z,17.11
2018-03-22T00:31:00.338Z,17.11
2018-03-22T00:31:12.531Z,17.11
2018-03-22T00:31:24.715Z,17.11
2018-03-22T00:31:36.890Z,17.11
2018-03-22T00:31:49.079Z,16.95
2018-03-22T00:32:01.253Z,16.95
2018-03-22T00:32:13.460Z,16.95
2018-03-22T00:32:25.787Z,16.95
2018-03-22T00:32:37.992Z,16.95
2018-03-22T00:32:50.238Z,16.95
2018-03-22T00:33:02.464Z,16.95
2018-03-22T00:33:14.677Z,16.95
2018-03-22T00:33:26.904Z,16.95
2018-03-22T00:33:39.108Z,16.95
2018-03-22T00:33:51.292Z,16.95
2018-03-22T00:34:03.513Z,16.95
2018-03-22T00:34:15.706Z,16.95
2018-03-22T00:34:27.919Z,16.95
2018-03-22T00:34:40.143Z,16.95
2018-03-22T00:34:52.384Z,18.09
2018-03-22T00:35:04.532Z,18.09
2018-03-22T00:35:16.675Z,18.09
2018-03-22T00:35:28.822Z,18.09
2018-03-22T00:35:40.970Z,18.09
2018-03-22T00:35:53.113Z,18.09
2018-03-22T00:36:05.252Z,18.09
2018-03-22T00:36:17.388Z,18.09
2018-03-22T00:36:29.541Z,18.09
2018-03-22T00:36:41.720Z,18.09
2018-03-22T00:36:53.853Z,18.09
2018-03-22T00:37:06.006Z,18.09
2018-03-22T00:37:18.215Z,18.09
2018-03-22T00:37:30.515Z,18.09
2018-03-22T00:37:42.672Z,18.09
2018-03-22T00:37:54.852Z,16.95
2018-03-22T00:38:06.987Z,16.95
2018-03-22T00:38:19.120Z,16.95
2018-03-22T00:38:31.260Z,16.95
2018-03-22T00:38:43.394Z,16.95
2018-03-22T00:38:55.536Z,16.95
2018-03-22T00:39:07.657Z,16.95
2018-03-22T00:39:20.086Z,16.95
2018-03-22T00:39:32.246Z,16.95
2018-03-22T00:39:44.507Z,16.95
2018-03-22T00:39:56.638Z,16.95
2018-03-22T00:40:08.798Z,16.95
2018-03-22T00:40:20.922Z,16.95
2018-03-22T00:40:33.062Z,16.95
2018-03-22T00:40:45.281Z,16.95
2018-03-22T00:40:57.431Z,19.49
2018-03-22T00:41:09.634Z,19.49
2018-03-22T00:41:21.757Z,19.49
2018-03-22T00:41:33.906Z,19.49
2018-03-22T00:41:46.029Z,19.49
2018-03-22T00:41:58.159Z,19.49
2018-03-22T00:42:10.295Z,19.49
2018-03-22T00:42:22.474Z,19.49
2018-03-22T00:42:34.607Z,19.49
2018-03-22T00:42:46.749Z,19.49
2018-03-22T00:42:58.902Z,19.49
2018-03-22T00:43:11.060Z,19.49
2018-03-22T00:43:23.206Z,19.49
2018-03-22T00:43:35.332Z,19.49
2018-03-22T00:43:47.467Z,21.88
2018-03-22T00:43:59.650Z,21.88
2018-03-22T00:44:11.794Z,21.88
2018-03-22T00:44:23.926Z,21.88
2018-03-22T00:44:36.108Z,21.88
2018-03-22T00:44:48.265Z,21.88
2018-03-22T00:45:00.391Z,21.88
2018-03-22T00:45:12.525Z,21.88
2018-03-22T00:45:24.656Z,21.88
2018-03-22T00:45:36.819Z,21.88
2018-03-22T00:45:48.964Z,21.88
2018-03-22T00:46:01.107Z,21.88
2018-03-22T00:46:13.250Z,21.88
2018-03-22T00:46:25.374Z,21.88
2018-03-22T00:46:37.504Z,21.88
2018-03-22T00:46:49.657Z,23.12
2018-03-22T00:47:01.784Z,23.12
2018-03-22T00:47:13.924Z,23.12
2018-03-22T00:47:26.111Z,23.12
2018-03-22T00:47:38.362Z,23.12
2018-03-22T00:47:50.492Z,23.12
2018-03-22T00:48:02.754Z,23.12
2018-03-22T00:48:14.890Z,23.12
2018-03-22T00:48:27.033Z,23.12
2018-03-22T00:48:39.158Z,23.12
2018-03-22T00:48:51.279Z,23.12
2018-03-22T00:49:03.413Z,23.12
2018-03-22T00:49:15.559Z,23.12
2018-03-22T00:49:27.706Z,23.12
2018-03-22T00:49:39.855Z,23.12
2018-03-22T00:49:52.033Z,20.35
2018-03-22T00:50:04.163Z,20.35
2018-03-22T00:50:16.305Z,20.35
2018-03-22T00:50:28.448Z,20.35
2018-03-22T00:50:40.615Z,20.35
2018-03-22T00:50:52.760Z,20.35
2018-03-22T00:51:04.888Z,20.35
2018-03-22T00:51:17.048Z,20.35
2018-03-22T00:51:29.199Z,20.35
2018-03-22T00:51:41.341Z,20.35
2018-03-22T00:51:53.487Z,20.35
2018-03-22T00:52:05.619Z,20.35
2018-03-22T00:52:17.752Z,20.35
2018-03-22T00:52:29.897Z,20.35
2018-03-22T00:52:42.073Z,20.35
2018-03-22T00:52:54.197Z,19.7
2018-03-22T00:53:06.348Z,19.7
2018-03-22T00:53:18.518Z,19.7
2018-03-22T00:53:30.691Z,19.7
2018-03-22T00:53:42.825Z,19.7
2018-03-22T00:53:54.953Z,19.7
2018-03-22T00:54:07.087Z,19.7
2018-03-22T00:54:19.222Z,19.7
2018-03-22T00:54:31.368Z,19.7
2018-03-22T00:54:43.640Z,19.7
2018-03-22T00:54:55.769Z,19.7
2018-03-22T00:55:07.924Z,19.7
2018-03-22T00:55:20.201Z,19.7
2018-03-22T00:55:32.337Z,19.7
2018-03-22T00:55:44.470Z,19.7
2018-03-22T00:55:56.600Z,17.6
2018-03-22T00:56:08.781Z,17.6
2018-03-22T00:56:20.964Z,17.6
2018-03-22T00:56:33.115Z,17.6
2018-03-22T00:56:45.266Z,17.6
2018-03-22T00:56:57.418Z,17.6
2018-03-22T00:57:09.555Z,17.6
2018-03-22T00:57:21.694Z,17.6
2018-03-22T00:57:33.839Z,17.6
2018-03-22T00:57:45.992Z,17.6
2018-03-22T00:57:58.118Z,17.6
2018-03-22T00:58:10.240Z,17.6
2018-03-22T00:58:22.369Z,17.6
2018-03-22T00:58:34.496Z,17.6
2018-03-22T00:58:46.640Z,17.6
2018-03-22T00:58:58.833Z,17.18
2018-03-22T00:59:10.977Z,17.18
2018-03-22T00:59:23.156Z,17.18
2018-03-22T00:59:35.365Z,17.18
2018-03-22T00:59:47.669Z,17.18
2018-03-22T00:59:59.816Z,17.18
2018-03-22T01:00:12.022Z,17.18
2018-03-22T01:00:24.197Z,17.18
2018-03-22T01:00:36.329Z,17.18
2018-03-22T01:00:48.451Z,17.18
2018-03-22T01:01:00.584Z,17.18
2018-03-22T01:01:12.725Z,17.18
2018-03-22T01:01:24.881Z,17.18
2018-03-22T01:01:37.019Z,17.18
2018-03-22T01:01:49.208Z,17.53
2018-03-22T01:02:01.340Z,17.53
2018-03-22T01:02:13.484Z,17.53
2018-03-22T01:02:25.633Z,17.53
2018-03-22T01:02:37.848Z,17.53
2018-03-22T01:02:50.004Z,17.53
2018-03-22T01:03:02.136Z,17.53
2018-03-22T01:03:14.274Z,17.53
2018-03-22T01:03:26.402Z,17.53
2018-03-22T01:03:38.541Z,17.53
2018-03-22T01:03:50.672Z,17.53
2018-03-22T01:04:02.840Z,17.53
2018-03-22T01:04:15.042Z,17.53
2018-03-22T01:04:27.173Z,17.53
2018-03-22T01:04:39.317Z,17.53
2018-03-22T01:04:51.471Z,18.05
2018-03-22T01:05:03.670Z,18.05
2018-03-22T01:05:15.801Z,18.05
2018-03-22T01:05:27.938Z,18.05
2018-03-22T01:05:40.072Z,18.05
2018-03-22T01:05:52.280Z,18.05
2018-03-22T01:06:04.429Z,18.05
2018-03-22T01:06:16.585Z,18.05
2018-03-22T01:06:28.715Z,18.05
2018-03-22T01:06:40.850Z,18.05
2018-03-22T01:06:52.990Z,18.05
2018-03-22T01:07:05.124Z,18.05
2018-03-22T01:07:17.413Z,18.05
2018-03-22T01:07:29.547Z,18.05
2018-03-22T01:07:41.702Z,18.05
2018-03-22T01:07:53.845Z,18.51
2018-03-22T01:08:05.987Z,18.51
2018-03-22T01:08:18.109Z,18.51
2018-03-22T01:08:30.246Z,18.51
2018-03-22T01:08:42.372Z,18.51
2018-03-22T01:08:54.537Z,18.51
2018-03-22T01:09:06.671Z,18.51
2018-03-22T01:09:18.808Z,18.51
2018-03-22T01:09:30.965Z,18.51
2018-03-22T01:09:43.078Z,18.51
2018-03-22T01:09:55.214Z,18.51
2018-03-22T01:10:07.334Z,18.51
2018-03-22T01:10:19.477Z,18.51
2018-03-22T01:10:31.761Z,18.51
2018-03-22T01:10:44.174Z,18.51
2018-03-22T01:10:56.443Z,19.48
2018-03-22T01:11:08.578Z,19.48
2018-03-22T01:11:20.886Z,19.48
2018-03-22T01:11:33.027Z,19.48
2018-03-22T01:11:45.154Z,19.48
2018-03-22T01:11:57.357Z,19.48
2018-03-22T01:12:09.503Z,19.48
2018-03-22T01:12:21.668Z,19.48
2018-03-22T01:12:33.810Z,19.48
2018-03-22T01:12:46.213Z,19.48
2018-03-22T01:12:58.356Z,19.48
2018-03-22T01:13:10.502Z,19.48
2018-03-22T01:13:22.642Z,19.48
2018-03-22T01:13:34.776Z,19.48
2018-03-22T01:13:46.907Z,19.48
2018-03-22T01:13:59.078Z,20.18
2018-03-22T01:14:11.210Z,20.18
2018-03-22T01:14:23.360Z,20.18
2018-03-22T01:14:35.522Z,20.18
2018-03-22T01:14:47.708Z,20.18
2018-03-22T01:14:59.842Z,20.18
2018-03-22T01:15:11.987Z,20.18
2018-03-22T01:15:24.119Z,20.18
2018-03-22T01:15:36.251Z,20.18
2018-03-22T01:15:48.413Z,20.18
2018-03-22T01:16:00.554Z,20.18
2018-03-22T01:16:12.713Z,20.18
2018-03-22T01:16:24.836Z,20.18
2018-03-22T01:16:37.103Z,20.18
2018-03-22T01:16:49.285Z,20.18
2018-03-22T01:17:01.440Z,20.78
2018-03-22T01:17:13.584Z,20.78
2018-03-22T01:17:25.708Z,20.78
2018-03-22T01:17:37.847Z,20.78
2018-03-22T01:17:49.976Z,20.78
2018-03-22T01:18:02.163Z,20.78
2018-03-22T01:18:14.433Z,20.78
2018-03-22T01:18:26.560Z,20.78
2018-03-22T01:18:38.972Z,20.78
2018-03-22T01:18:51.127Z,20.78
2018-03-22T01:19:03.323Z,20.78
2018-03-22T01:19:15.455Z,20.78
2018-03-22T01:19:27.654Z,20.78
2018-03-22T01:19:39.780Z,20.78
2018-03-22T01:19:51.933Z,19.12
2018-03-22T01:20:04.077Z,19.12
2018-03-22T01:20:16.269Z,19.12
2018-03-22T01:20:28.409Z,19.12
2018-03-22T01:20:40.532Z,19.12
2018-03-22T01:20:52.675Z,19.12
2018-03-22T01:21:04.797Z,19.12
2018-03-22T01:21:17.002Z,19.12
2018-03-22T01:21:29.147Z,19.12
2018-03-22T01:21:41.343Z,19.12
2018-03-22T01:21:53.499Z,19.12
2018-03-22T01:22:05.778Z,19.12
2018-03-22T01:22:17.928Z,19.12
2018-03-22T01:22:30.074Z,19.12
2018-03-22T01:22:42.219Z,19.12
2018-03-22T01:22:54.371Z,18.1
2018-03-22T01:23:06.507Z,18.1
2018-03-22T01:23:18.645Z,18.1
2018-03-22T01:23:30.788Z,18.1
2018-03-22T01:23:42.949Z,18.1
2018-03-22T01:23:55.077Z,18.1
2018-03-22T01:24:07.225Z,18.1
2018-03-22T01:24:19.356Z,18.1
2018-03-22T01:24:31.496Z,18.1
2018-03-22T01:24:43.752Z,18.1
2018-03-22T01:24:55.874Z,18.1
2018-03-22T01:25:08.153Z,18.1
2018-03-22T01:25:20.354Z,18.1
2018-03-22T01:25:32.485Z,18.1
2018-03-22T01:25:44.629Z,18.1
2018-03-22T01:25:56.787Z,17.03
2018-03-22T01:26:08.936Z,17.03
2018-03-22T01:26:21.065Z,17.03
2018-03-22T01:26:33.183Z,17.03
2018-03-22T01:26:45.333Z,17.03
2018-03-22T01:26:57.607Z,17.03
2018-03-22T01:27:09.739Z,17.03
2018-03-22T01:27:21.875Z,17.03
2018-03-22T01:27:34.037Z,17.03
2018-03-22T01:27:46.170Z,17.03
2018-03-22T01:27:58.303Z,17.03
2018-03-22T01:28:10.422Z,17.03
2018-03-22T01:28:22.562Z,17.03
2018-03-22T01:28:34.701Z,17.03
2018-03-22T01:28:46.857Z,17.03
2018-03-22T01:28:59.017Z,16.6
2018-03-22T01:29:11.170Z,16.6
2018-03-22T01:29:23.330Z,16.6
2018-03-22T01:29:35.497Z,16.6
2018-03-22T01:29:47.634Z,16.6
2018-03-22T01:29:59.758Z,16.6
2018-03-22T01:30:11.903Z,16.6
2018-03-22T01:30:24.054Z,16.6
2018-03-22T01:30:36.194Z,16.6
2018-03-22T01:30:48.374Z,16.6
2018-03-22T01:31:00.529Z,16.6
2018-03-22T01:31:12.758Z,16.6
2018-03-22T01:31:24.927Z,16.6
2018-03-22T01:31:37.065Z,16.6
2018-03-22T01:31:49.224Z,16.6
2018-03-22T01:32:01.353Z,16.98
2018-03-22T01:32:13.516Z,16.98
2018-03-22T01:32:25.818Z,16.98
2018-03-22T01:32:37.965Z,16.98
2018-03-22T01:32:50.093Z,16.98
2018-03-22T01:33:02.268Z,16.98
2018-03-22T01:33:14.418Z,16.98
2018-03-22T01:33:26.564Z,16.98
2018-03-22T01:33:38.704Z,16.98
2018-03-22T01:33:50.833Z,16.98
2018-03-22T01:34:02.993Z,16.98
2018-03-22T01:34:15.131Z,16.98
2018-03-22T01:34:27.269Z,16.98
2018-03-22T01:34:39.403Z,16.98
2018-03-22T01:34:51.546Z,16.98
2018-03-22T01:35:03.693Z,17.92
2018-03-22T01:35:15.860Z,17.92
2018-03-22T01:35:28.003Z,17.92
2018-03-22T01:35:40.205Z,17.92
2018-03-22T01:35:52.349Z,17.92
2018-03-22T01:36:04.489Z,17.92
2018-03-22T01:36:16.627Z,17.92
2018-03-22T01:36:28.757Z,17.92
2018-03-22T01:36:40.921Z,17.92
2018-03-22T01:36:53.057Z,17.92
2018-03-22T01:37:05.201Z,17.92
2018-03-22T01:37:17.479Z,17.92
2018-03-22T01:37:29.744Z,17.92
2018-03-22T01:37:41.881Z,17.92
2018-03-22T01:37:54.023Z,17.92
2018-03-22T01:38:06.163Z,20.8
2018-03-22T01:38:18.302Z,20.8
2018-03-22T01:38:30.453Z,20.8
2018-03-22T01:38:42.608Z,20.8
2018-03-22T01:38:54.756Z,20.8
2018-03-22T01:39:06.925Z,20.8
2018-03-22T01:39:19.068Z,20.8
2018-03-22T01:39:31.220Z,20.8
2018-03-22T01:39:43.378Z,20.8
2018-03-22T01:39:55.567Z,20.8
2018-03-22T01:40:07.772Z,20.8
2018-03-22T01:40:19.899Z,20.8
2018-03-22T01:40:32.037Z,20.8
2018-03-22T01:40:44.189Z,20.8
2018-03-22T01:40:56.327Z,21.91
2018-03-22T01:41:08.479Z,21.91
2018-03-22T01:41:20.639Z,21.91
2018-03-22T01:41:32.767Z,21.91
2018-03-22T01:41:44.931Z,21.91
2018-03-22T01:41:57.068Z,21.91
2018-03-22T01:42:09.193Z,21.91
2018-03-22T01:42:21.345Z,21.91
2018-03-22T01:42:33.496Z,21.91
2018-03-22T01:42:45.628Z,21.91
2018-03-22T01:42:57.765Z,21.91
2018-03-22T01:43:09.904Z,21.91
2018-03-22T01:43:22.056Z,21.91
2018-03-22T01:43:34.233Z,21.91
2018-03-22T01:43:46.375Z,21.91
2018-03-22T01:43:58.565Z,19.85
2018-03-22T01:44:10.740Z,19.85
2018-03-22T01:44:22.890Z,19.85
2018-03-22T01:44:35.008Z,19.85
2018-03-22T01:44:47.203Z,19.85
2018-03-22T01:44:59.356Z,19.85
2018-03-22T01:45:11.504Z,19.85
2018-03-22T01:45:23.627Z,19.85
2018-03-22T01:45:35.782Z,19.85
2018-03-22T01:45:47.931Z,19.85
2018-03-22T01:46:00.078Z,19.85
2018-03-22T01:46:12.276Z,19.85
2018-03-22T01:46:24.398Z,19.85
2018-03-22T01:46:36.530Z,19.85
2018-03-22T01:46:48.652Z,19.85
2018-03-22T01:47:00.806Z,19.47
2018-03-22T01:47:12.949Z,19.47
2018-03-22T01:47:25.142Z,19.47
2018-03-22T01:47:37.287Z,19.47
2018-03-22T01:47:49.499Z,19.47
2018-03-22T01:48:01.803Z,19.47
2018-03-22T01:48:13.930Z,19.47
2018-03-22T01:48:26.068Z,19.47
2018-03-22T01:48:38.203Z,19.47
2018-03-22T01:48:50.347Z,19.47
2018-03-22T01:49:02.500Z,19.47
2018-03-22T01:49:14.633Z,19.47
2018-03-22T01:49:26.772Z,19.47
2018-03-22T01:49:38.888Z,19.47
2018-03-22T01:49:51.022Z,19.47
2018-03-22T01:50:03.174Z,19.2
2018-03-22T01:50:15.331Z,19.2
2018-03-22T01:50:27.491Z,19.2
2018-03-22T01:50:39.645Z,19.2
2018-03-22T01:50:51.771Z,19.2
2018-03-22T01:51:03.920Z,19.2
2018-03-22T01:51:16.051Z,19.2
2018-03-22T01:51:28.221Z,19.2
2018-03-22T01:51:40.384Z,19.2
2018-03-22T01:51:52.527Z,19.2
2018-03-22T01:52:04.661Z,19.2
2018-03-22T01:52:16.796Z,19.2
2018-03-22T01:52:28.929Z,19.2
2018-03-22T01:52:41.079Z,19.2
2018-03-22T01:52:53.352Z,19.2
2018-03-22T01:53:05.468Z,19.2
2018-03-22T01:53:17.629Z,19.2
2018-03-22T01:53:29.761Z,20.17
2018-03-22T01:53:41.897Z,20.17
2018-03-22T01:53:54.019Z,20.17
2018-03-22T01:54:06.155Z,20.17
2018-03-22T01:54:18.279Z,20.17
2018-03-22T01:54:30.408Z,20.17
2018-03-22T01:54:42.935Z,20.17
2018-03-22T01:54:55.050Z,20.17
2018-03-22T01:55:07.220Z,20.17
2018-03-22T01:55:19.361Z,20.17
2018-03-22T01:55:31.607Z,20.17
2018-03-22T01:55:43.749Z,20.17
2018-03-22T01:55:55.893Z,20.17
2018-03-22T01:56:08.035Z,20.17
2018-03-22T01:56:20.172Z,20.17
2018-03-22T01:56:32.311Z,19.52
2018-03-22T01:56:44.455Z,19.52
2018-03-22T01:56:56.634Z,19.52
2018-03-22T01:57:08.775Z,19.52
2018-03-22T01:57:20.957Z,19.52
2018-03-22T01:57:33.088Z,19.52
2018-03-22T01:57:45.231Z,19.52
2018-03-22T01:57:57.402Z,19.52
2018-03-22T01:58:09.538Z,19.52
2018-03-22T01:58:21.687Z,19.52
2018-03-22T01:58:33.832Z,19.52
2018-03-22T01:58:45.957Z,19.52
2018-03-22T01:58:58.152Z,19.52
2018-03-22T01:59:10.277Z,19.52
2018-03-22T01:59:22.427Z,19.52
2018-03-22T01:59:34.558Z,19.29
2018-03-22T01:59:46.791Z,19.29
2018-03-22T01:59:58.924Z,19.29
2018-03-22T02:00:11.083Z,19.29
2018-03-22T02:00:23.255Z,19.29
2018-03-22T02:00:35.421Z,19.29
2018-03-22T02:00:47.560Z,19.29
2018-03-22T02:00:59.687Z,19.29
2018-03-22T02:01:11.837Z,19.29
2018-03-22T02:01:24.015Z,19.29
2018-03-22T02:01:36.151Z,19.29
2018-03-22T02:01:48.337Z,19.29
2018-03-22T02:02:00.633Z,19.29
2018-03-22T02:02:12.756Z,19.29
2018-03-22T02:02:24.952Z,19.29
2018-03-22T02:02:37.118Z,20.63
2018-03-22T02:02:49.278Z,20.63
2018-03-22T02:03:01.418Z,20.63
2018-03-22T02:03:13.551Z,20.63
2018-03-22T02:03:25.695Z,20.63
2018-03-22T02:03:37.842Z,20.63
2018-03-22T02:03:49.963Z,20.63
2018-03-22T02:04:02.090Z,20.63
2018-03-22T02:04:14.244Z,20.63
2018-03-22T02:04:26.366Z,20.63
2018-03-22T02:04:38.489Z,20.63
2018-03-22T02:04:50.660Z,20.63
2018-03-22T02:05:02.802Z,20.63
2018-03-22T02:05:14.940Z,20.63
2018-03-22T02:05:27.088Z,20.63
2018-03-22T02:05:39.217Z,20.9
2018-03-22T02:05:51.391Z,20.9
2018-03-22T02:06:03.542Z,20.9
2018-03-22T02:06:15.684Z,20.9
2018-03-22T02:06:27.882Z,20.9
2018-03-22T02:06:40.078Z,20.9
2018-03-22T02:06:52.238Z,20.9
2018-03-22T02:07:04.401Z,20.9
2018-03-22T02:07:16.684Z,20.9
2018-03-22T02:07:28.824Z,20.9
2018-03-22T02:07:40.944Z,20.9
2018-03-22T02:07:53.097Z,20.9
2018-03-22T02:08:05.250Z,20.9
2018-03-22T02:08:17.380Z,20.9
2018-03-22T02:08:29.519Z,19.05
2018-03-22T02:08:41.658Z,19.05
2018-03-22T02:08:53.779Z,19.05
2018-03-22T02:09:05.908Z,19.05
2018-03-22T02:09:18.034Z,19.05
2018-03-22T02:09:30.164Z,19.05
2018-03-22T02:09:42.295Z,19.05
2018-03-22T02:09:54.437Z,19.05
2018-03-22T02:10:06.787Z,19.05
2018-03-22T02:10:19.232Z,19.05
2018-03-22T02:10:31.433Z,19.05
2018-03-22T02:10:43.585Z,19.05
2018-03-22T02:10:55.725Z,19.05
2018-03-22T02:11:07.861Z,19.05
2018-03-22T02:11:20.190Z,19.05
2018-03-22T02:11:32.317Z,16.48
2018-03-22T02:11:44.508Z,16.48
2018-03-22T02:11:56.685Z,16.48
2018-03-22T02:12:08.846Z,16.48
2018-03-22T02:12:20.984Z,16.48
2018-03-22T02:12:33.134Z,16.48
2018-03-22T02:12:45.434Z,16.48
2018-03-22T02:12:57.569Z,16.48
2018-03-22T02:13:09.707Z,16.48
2018-03-22T02:13:21.840Z,16.48
2018-03-22T02:13:33.978Z,16.48
2018-03-22T02:13:46.203Z,16.48
2018-03-22T02:13:58.381Z,16.48
2018-03-22T02:14:10.693Z,16.48
2018-03-22T02:14:22.826Z,16.48
2018-03-22T02:14:34.958Z,17.75
2018-03-22T02:14:47.099Z,17.75
2018-03-22T02:14:59.240Z,17.75
2018-03-22T02:15:11.390Z,17.75
2018-03-22T02:15:23.541Z,17.75
2018-03-22T02:15:35.684Z,17.75
2018-03-22T02:15:47.821Z,17.75
2018-03-22T02:15:59.961Z,17.75
2018-03-22T02:16:12.091Z,17.75
2018-03-22T02:16:24.270Z,17.75
2018-03-22T02:16:36.516Z,17.75
2018-03-22T02:16:48.636Z,17.75
2018-03-22T02:17:00.761Z,17.75
2018-03-22T02:17:12.907Z,17.75
2018-03-22T02:17:25.049Z,17.75
2018-03-22T02:17:37.217Z,19.59
2018-03-22T02:17:49.349Z,19.59
2018-03-22T02:18:01.466Z,19.59
2018-03-22T02:18:13.609Z,19.59
2018-03-22T02:18:25.747Z,19.59
2018-03-22T02:18:38.020Z,19.59
2018-03-22T02:18:50.178Z,19.59
2018-03-22T02:19:02.307Z,19.59
2018-03-22T02:19:14.456Z,19.59
2018-03-22T02:19:26.600Z,19.59
2018-03-22T02:19:38.726Z,19.59
2018-03-22T02:19:50.924Z,19.59
2018-03-22T02:20:03.077Z,19.59
2018-03-22T02:20:15.195Z,19.59
2018-03-22T02:20:27.369Z,19.59
2018-03-22T02:20:39.572Z,17.98
2018-03-22T02:20:51.729Z,17.98
2018-03-22T02:21:03.865Z,17.98
2018-03-22T02:21:16.003Z,17.98
2018-03-22T02:21:28.151Z,17.98
2018-03-22T02:21:40.293Z,17.98
2018-03-22T02:21:52.430Z,17.98
2018-03-22T02:22:04.565Z,17.98
2018-03-22T02:22:16.734Z,17.98
2018-03-22T02:22:28.933Z,17.98
2018-03-22T02:22:41.075Z,17.98
2018-03-22T02:22:53.226Z,17.98
2018-03-22T02:23:05.393Z,17.98
2018-03-22T02:23:17.548Z,17.98
2018-03-22T02:23:29.690Z,17.98
2018-03-22T02:23:41.818Z,17.63
2018-03-22T02:23:53.951Z,17.63
2018-03-22T02:24:06.096Z,17.63
2018-03-22T02:24:18.244Z,17.63
2018-03-22T02:24:30.387Z,17.63
2018-03-22T02:24:42.529Z,17.63
2018-03-22T02:24:54.678Z,17.63
2018-03-22T02:25:06.823Z,17.63
2018-03-22T02:25:18.973Z,17.63
2018-03-22T02:25:31.135Z,17.63
2018-03-22T02:25:43.294Z,17.63
2018-03-22T02:25:55.441Z,17.63
2018-03-22T02:26:07.713Z,17.63
2018-03-22T02:26:19.887Z,17.63
2018-03-22T02:26:32.046Z,17.63
2018-03-22T02:26:44.177Z,20.6
2018-03-22T02:26:56.658Z,20.6
2018-03-22T02:27:08.831Z,20.6
2018-03-22T02:27:21.015Z,20.6
2018-03-22T02:27:33.180Z,20.6
2018-03-22T02:27:45.368Z,20.6
2018-03-22T02:27:57.528Z,20.6
2018-03-22T02:28:09.664Z,20.6
2018-03-22T02:28:21.818Z,20.6
2018-03-22T02:28:33.951Z,20.6
2018-03-22T02:28:46.088Z,20.6
2018-03-22T02:28:58.225Z,20.6
2018-03-22T02:29:10.356Z,20.6
2018-03-22T02:29:22.509Z,20.6
2018-03-22T02:29:34.681Z,18.65
2018-03-22T02:29:46.819Z,18.65
2018-03-22T02:29:58.968Z,18.65
2018-03-22T02:30:11.155Z,18.65
2018-03-22T02:30:23.469Z,18.65
2018-03-22T02:30:35.727Z,18.65
2018-03-22T02:30:47.940Z,18.65
2018-03-22T02:31:00.114Z,18.65
2018-03-22T02:31:12.329Z,18.65
2018-03-22T02:31:24.507Z,18.65
2018-03-22T02:31:36.687Z,18.65
2018-03-22T02:31:48.852Z,18.65
2018-03-22T02:32:01.051Z,18.65
2018-03-22T02:32:13.217Z,18.65
2018-03-22T02:32:25.541Z,18.65
2018-03-22T02:32:37.690Z,18.09
2018-03-22T02:32:49.843Z,18.09
2018-03-22T02:33:01.987Z,18.09
2018-03-22T02:33:14.167Z,18.09
2018-03-22T02:33:26.347Z,18.09
2018-03-22T02:33:38.550Z,18.09
2018-03-22T02:33:50.736Z,18.09
2018-03-22T02:34:02.996Z,18.09
2018-03-22T02:34:15.175Z,18.09
2018-03-22T02:34:27.386Z,18.09
2018-03-22T02:34:39.617Z,18.09
2018-03-22T02:34:51.783Z,18.09
2018-03-22T02:35:03.959Z,18.09
2018-03-22T02:35:16.133Z,18.09
2018-03-22T02:35:28.356Z,18.09
2018-03-22T02:35:40.614Z,17.99
2018-03-22T02:35:52.777Z,17.99
2018-03-22T02:36:04.993Z,17.99
2018-03-22T02:36:17.186Z,17.99
2018-03-22T02:36:29.397Z,17.99
2018-03-22T02:36:41.549Z,17.99
2018-03-22T02:36:53.754Z,17.99
2018-03-22T02:37:05.982Z,17.99
2018-03-22T02:37:18.154Z,17.99
2018-03-22T02:37:30.546Z,17.99
2018-03-22T02:37:42.710Z,17.99